Time;durP1;ratioP1;P1;durP2;ratioP2;P2;SDS_P1;SDS_P2;PMS_P1;PMS_P2;Temp;Humidity;BMP_temperature;BMP_pressure;BME280_temperature;BME280_humidity;BME280_pressure;Samples;Min_cycle;Max_cycle;Signal;HPM_P1;HPM_P2
2021/11/04 00:00:36;;;;;;;27.30;16.90;;;7.80;99.90;;;;;;5062321;28;20198;-53
2021/11/04 00:03:04;;;;;;;23.83;16.30;;;7.90;99.90;;;;;;5060853;28;20255;-55
2021/11/04 00:05:31;;;;;;;27.97;17.17;;;7.80;99.90;;;;;;5063008;28;20221;-55
2021/11/04 00:08:02;;;;;;;25.83;16.70;;;7.80;99.90;;;;;;5059943;28;20210;-55
2021/11/04 00:10:29;;;;;;;26.97;17.50;;;7.90;99.90;;;;;;5063183;28;20203;-54
2021/11/04 00:12:57;;;;;;;24.47;16.20;;;7.80;99.90;;;;;;5042920;28;20213;-51
2021/11/04 00:15:24;;;;;;;27.63;17.33;;;7.80;99.90;;;;;;5053177;28;20219;-55
2021/11/04 00:17:51;;;;;;;25.27;17.20;;;7.80;99.90;;;;;;5062256;28;20241;-54
2021/11/04 00:20:18;;;;;;;25.83;16.50;;;7.80;99.90;;;;;;5056634;28;20204;-53
2021/11/04 00:22:46;;;;;;;24.57;17.20;;;7.80;99.90;;;;;;5060867;28;20202;-54
2021/11/04 00:25:14;;;;;;;29.67;18.40;;;7.80;99.90;;;;;;5062596;28;20230;-53
2021/11/04 00:27:41;;;;;;;27.83;18.63;;;7.80;99.90;;;;;;5040657;28;20210;-54
2021/11/04 00:30:10;;;;;;;29.13;17.87;;;7.80;99.90;;;;;;5063026;28;20933;-51
2021/11/04 00:32:37;;;;;;;29.00;18.17;;;7.80;99.90;;;;;;5053211;28;20207;-53
2021/11/04 00:35:05;;;;;;;32.77;17.97;;;7.80;99.90;;;;;;5062421;28;20244;-54
2021/11/04 00:37:32;;;;;;;28.30;16.70;;;7.80;99.90;;;;;;5052323;28;20808;-51
2021/11/04 00:39:59;;;;;;;29.57;17.53;;;7.80;99.90;;;;;;5056559;28;20201;-51
2021/11/04 00:42:25;;;;;;;27.90;16.50;;;7.80;99.90;;;;;;5058207;28;20207;-52
2021/11/04 00:44:52;;;;;;;26.80;17.50;;;7.80;99.90;;;;;;5046588;28;20229;-52
2021/11/04 00:47:20;;;;;;;29.60;17.57;;;7.80;99.90;;;;;;5054566;28;20210;-54
2021/11/04 00:49:46;;;;;;;30.20;17.00;;;7.80;99.90;;;;;;5061597;28;20191;-55
2021/11/04 00:52:13;;;;;;;29.60;17.33;;;7.80;99.90;;;;;;5061571;28;20195;-53
2021/11/04 00:54:40;;;;;;;26.83;17.83;;;7.80;99.90;;;;;;5055237;28;20217;-53
2021/11/04 00:57:07;;;;;;;29.03;17.27;;;7.80;99.90;;;;;;5062898;28;20203;-55
2021/11/04 00:59:34;;;;;;;26.73;17.30;;;7.80;99.90;;;;;;5045081;28;21211;-55
2021/11/04 01:02:00;;;;;;;26.67;16.97;;;7.80;99.90;;;;;;5063057;28;20550;-54
2021/11/04 01:04:28;;;;;;;30.73;17.67;;;7.80;99.90;;;;;;5058685;28;20219;-54
2021/11/04 01:06:55;;;;;;;31.07;18.47;;;7.80;99.90;;;;;;5057639;28;20198;-53
2021/11/04 01:09:21;;;;;;;29.30;16.83;;;7.80;99.90;;;;;;5059200;28;20207;-54
2021/11/04 01:11:48;;;;;;;30.07;17.83;;;7.90;99.90;;;;;;5060329;28;20206;-52
2021/11/04 01:14:15;;;;;;;26.87;17.13;;;7.80;99.90;;;;;;5056116;28;20264;-54
2021/11/04 01:16:42;;;;;;;31.83;18.43;;;7.80;99.90;;;;;;5052674;28;20306;-52
2021/11/04 01:19:12;;;;;;;35.57;18.73;;;7.80;99.90;;;;;;5062542;28;20202;-53
2021/11/04 01:21:40;;;;;;;30.03;18.40;;;7.80;99.90;;;;;;5058340;28;20191;-54
2021/11/04 01:24:06;;;;;;;29.30;17.93;;;7.80;99.90;;;;;;5062439;28;20233;-52
2021/11/04 01:26:33;;;;;;;30.53;18.07;;;7.80;99.90;;;;;;5058498;28;20217;-50
2021/11/04 01:29:00;;;;;;;27.57;17.60;;;7.80;99.90;;;;;;5057497;28;20206;-53
2021/11/04 01:31:27;;;;;;;27.50;16.83;;;7.80;99.90;;;;;;5044102;28;20206;-53
2021/11/04 01:33:53;;;;;;;27.43;17.97;;;7.80;99.90;;;;;;5061811;28;20195;-53
2021/11/04 01:36:20;;;;;;;29.60;18.63;;;7.80;99.90;;;;;;5053673;28;20214;-53
2021/11/04 01:38:48;;;;;;;26.47;17.47;;;7.80;99.90;;;;;;5059739;28;20223;-54
2021/11/04 01:41:16;;;;;;;27.87;18.57;;;7.80;99.90;;;;;;5058971;28;20218;-55
2021/11/04 01:43:43;;;;;;;30.03;17.60;;;7.80;99.90;;;;;;5059783;28;21060;-53
2021/11/04 01:46:10;;;;;;;28.30;17.83;;;7.80;99.90;;;;;;5051325;28;20276;-55
2021/11/04 01:48:38;;;;;;;34.37;18.13;;;7.80;99.90;;;;;;5062273;28;20183;-53
2021/11/04 01:51:04;;;;;;;30.47;18.20;;;7.80;99.90;;;;;;5066219;28;20203;-52
2021/11/04 01:53:31;;;;;;;27.70;17.90;;;7.80;99.90;;;;;;5061620;28;20198;-49
2021/11/04 01:55:59;;;;;;;26.10;17.53;;;7.80;99.90;;;;;;5065480;28;20234;-55
2021/11/04 01:58:26;;;;;;;27.27;18.10;;;7.70;99.90;;;;;;5062308;28;20598;-55
2021/11/04 02:00:54;;;;;;;28.83;17.63;;;7.70;99.90;;;;;;5064714;28;20683;-52
2021/11/04 02:03:28;;;;;;;30.37;18.13;;;7.80;99.90;;;;;;5048752;28;20679;-54
2021/11/04 02:06:03;;;;;;;27.73;17.70;;;7.80;99.90;;;;;;5065414;28;20218;-53
2021/11/04 02:08:37;;;;;;;26.63;16.67;;;7.80;99.90;;;;;;5060925;28;20190;-52
2021/11/04 02:11:12;;;;;;;26.40;17.47;;;7.80;99.90;;;;;;5061022;28;20218;-51
2021/11/04 02:13:46;;;;;;;30.27;18.10;;;7.80;99.90;;;;;;5056222;28;20281;-49
2021/11/04 02:16:16;;;;;;;29.13;18.10;;;7.80;99.90;;;;;;5060735;28;20230;-54
2021/11/04 02:18:43;;;;;;;29.33;17.70;;;7.80;99.90;;;;;;5054089;28;20288;-52
2021/11/04 02:21:13;;;;;;;27.27;17.57;;;7.80;99.90;;;;;;5065034;28;20229;-54
2021/11/04 02:23:46;;;;;;;30.30;18.27;;;7.80;99.90;;;;;;5055843;28;20205;-51
2021/11/04 02:26:15;;;;;;;28.30;17.67;;;7.80;99.90;;;;;;5063578;28;20195;-54
2021/11/04 02:28:43;;;;;;;25.30;17.47;;;7.80;99.90;;;;;;5061994;28;20221;-51
2021/11/04 02:31:11;;;;;;;29.83;18.40;;;7.80;99.90;;;;;;5065201;28;20296;-54
2021/11/04 02:33:39;;;;;;;29.80;17.93;;;7.80;99.90;;;;;;5046754;28;20195;-52
2021/11/04 02:36:07;;;;;;;31.50;18.67;;;7.80;99.90;;;;;;5058059;28;20198;-50
2021/11/04 02:38:34;;;;;;;31.33;18.57;;;7.70;99.90;;;;;;5061153;28;20210;-53
2021/11/04 02:41:02;;;;;;;26.40;18.60;;;7.70;99.90;;;;;;5063032;28;20566;-54
2021/11/04 02:43:33;;;;;;;28.83;18.47;;;7.70;99.90;;;;;;5060801;28;20206;-53
2021/11/04 02:46:01;;;;;;;29.33;17.97;;;7.80;99.90;;;;;;5064788;28;20214;-54
2021/11/04 02:48:29;;;;;;;30.70;19.03;;;7.70;99.90;;;;;;5047372;28;20206;-54
2021/11/04 02:50:56;;;;;;;30.53;18.90;;;7.70;99.90;;;;;;5063380;28;20583;-54
2021/11/04 02:53:25;;;;;;;30.77;19.10;;;7.70;99.90;;;;;;5061630;28;20210;-55
2021/11/04 02:55:53;;;;;;;26.90;18.23;;;7.70;99.90;;;;;;5062886;28;20579;-52
2021/11/04 02:58:20;;;;;;;29.13;17.90;;;7.70;99.90;;;;;;5057217;28;20227;-51
2021/11/04 03:00:50;;;;;;;28.80;18.50;;;7.70;99.90;;;;;;5063056;28;20945;-53
2021/11/04 03:03:17;;;;;;;29.97;20.60;;;7.70;99.90;;;;;;5055635;28;20199;-54
2021/11/04 03:05:44;;;;;;;28.43;19.77;;;7.70;99.90;;;;;;5056038;28;20849;-54
2021/11/04 03:08:11;;;;;;;31.43;18.80;;;7.60;99.90;;;;;;5063794;28;20195;-53
2021/11/04 03:10:37;;;;;;;33.57;19.93;;;7.60;99.90;;;;;;5055973;28;21418;-53
2021/11/04 03:13:04;;;;;;;32.90;19.90;;;7.60;99.90;;;;;;5064202;28;20202;-54
2021/11/04 03:15:35;;;;;;;27.43;18.77;;;7.60;99.90;;;;;;5060249;28;20206;-54
2021/11/04 03:18:03;;;;;;;33.93;19.90;;;7.60;99.90;;;;;;5058942;28;20561;-54
2021/11/04 03:20:30;;;;;;;31.27;19.83;;;7.60;99.90;;;;;;5045563;28;20795;-54
2021/11/04 03:22:58;;;;;;;31.60;19.67;;;7.60;99.90;;;;;;5062724;28;20549;-53
2021/11/04 03:25:25;;;;;;;28.30;18.77;;;7.60;99.90;;;;;;5053579;28;20227;-55
2021/11/04 03:27:55;;;;;;;29.93;18.47;;;7.60;99.90;;;;;;5063755;28;20213;-53
2021/11/04 03:30:24;;;;;;;29.10;19.63;;;7.60;99.90;;;;;;5061633;28;20705;-54
2021/11/04 03:32:53;;;;;;;31.77;19.90;;;7.60;99.90;;;;;;5062040;28;20225;-52
2021/11/04 03:35:23;;;;;;;33.50;19.67;;;7.60;99.90;;;;;;5047040;28;20227;-54
2021/11/04 03:37:51;;;;;;;29.37;18.63;;;7.60;99.90;;;;;;5051436;28;20746;-52
2021/11/04 03:40:19;;;;;;;29.40;18.23;;;7.60;99.90;;;;;;5055850;28;20214;-53
2021/11/04 03:42:49;;;;;;;30.47;18.30;;;7.60;99.90;;;;;;5055613;28;20195;-51
2021/11/04 03:45:17;;;;;;;31.87;19.07;;;7.60;99.90;;;;;;5062314;28;20705;-52
2021/11/04 03:47:45;;;;;;;27.77;18.07;;;7.60;99.90;;;;;;5059484;28;21175;-54
2021/11/04 03:50:13;;;;;;;30.40;19.17;;;7.60;99.90;;;;;;5048202;28;20202;-55
2021/11/04 03:52:43;;;;;;;32.83;20.10;;;7.60;99.90;;;;;;5060194;28;20191;-52
2021/11/04 03:55:12;;;;;;;30.97;18.87;;;7.60;99.90;;;;;;5063251;28;20674;-55
2021/11/04 03:57:40;;;;;;;32.37;19.20;;;7.60;99.90;;;;;;5055815;28;20222;-54
2021/11/04 04:00:10;;;;;;;31.57;20.80;;;7.60;99.90;;;;;;5063393;28;20202;-54
2021/11/04 04:02:37;;;;;;;33.40;19.60;;;7.60;99.90;;;;;;5054907;28;20190;-52
2021/11/04 04:05:04;;;;;;;33.67;20.23;;;7.60;99.90;;;;;;5048911;28;20305;-54
2021/11/04 04:07:32;;;;;;;29.20;18.63;;;7.60;99.90;;;;;;5053128;28;20221;-52
2021/11/04 04:10:01;;;;;;;35.53;20.00;;;7.60;99.90;;;;;;5063522;28;20202;-51
2021/11/04 04:12:28;;;;;;;32.27;19.13;;;7.60;99.90;;;;;;5059425;28;20253;-52
2021/11/04 04:14:54;;;;;;;35.13;19.77;;;7.60;99.90;;;;;;5056213;28;20218;-51
2021/11/04 04:17:23;;;;;;;34.53;19.67;;;7.70;99.90;;;;;;5060219;28;20206;-55
2021/11/04 04:19:50;;;;;;;30.70;17.87;;;7.70;99.90;;;;;;5062081;28;20201;-53
2021/11/04 04:22:17;;;;;;;30.07;18.33;;;7.70;99.90;;;;;;5046572;28;20211;-55
2021/11/04 04:24:43;;;;;;;29.43;18.43;;;7.70;99.90;;;;;;5060712;28;20219;-55
2021/11/04 04:27:13;;;;;;;26.83;17.87;;;7.60;99.90;;;;;;5062885;28;20217;-51
2021/11/04 04:29:40;;;;;;;31.03;18.07;;;7.70;99.90;;;;;;5060442;28;20193;-54
2021/11/04 04:32:07;;;;;;;27.90;17.23;;;7.60;99.90;;;;;;5057755;28;20210;-53
2021/11/04 04:34:34;;;;;;;30.60;17.33;;;7.60;99.90;;;;;;5058973;28;20223;-52
2021/11/04 04:37:00;;;;;;;30.87;17.47;;;7.70;99.90;;;;;;5045686;28;20214;-52
2021/11/04 04:39:27;;;;;;;30.13;18.87;;;7.70;99.90;;;;;;5058005;28;20206;-53
2021/11/04 04:41:54;;;;;;;29.13;17.43;;;7.70;99.90;;;;;;5062119;28;20643;-52
2021/11/04 04:44:21;;;;;;;31.37;17.80;;;7.70;99.90;;;;;;5059524;28;20218;-54
2021/11/04 04:46:48;;;;;;;28.37;17.23;;;7.70;99.90;;;;;;5062782;28;20213;-55
2021/11/04 04:49:15;;;;;;;30.03;17.03;;;7.70;99.90;;;;;;5058701;28;20222;-52
2021/11/04 04:51:41;;;;;;;27.33;15.63;;;7.70;99.90;;;;;;5062535;28;20206;-54
2021/11/04 04:54:08;;;;;;;26.00;16.67;;;7.70;99.90;;;;;;5036024;28;21935;-53
2021/11/04 04:56:35;;;;;;;34.27;16.63;;;7.70;99.90;;;;;;5061485;28;20205;-52
2021/11/04 04:59:02;;;;;;;27.00;16.40;;;7.70;99.90;;;;;;5060082;28;20964;-51
2021/11/04 05:01:30;;;;;;;29.83;17.03;;;7.70;99.90;;;;;;5049382;28;20577;-49
2021/11/04 05:03:57;;;;;;;27.30;16.50;;;7.70;99.90;;;;;;5059252;28;20206;-49
2021/11/04 05:06:24;;;;;;;31.93;17.03;;;7.70;99.90;;;;;;5056202;28;20198;-51
2021/11/04 05:08:50;;;;;;;26.50;15.50;;;7.70;99.90;;;;;;5039602;28;20217;-55
2021/11/04 05:11:17;;;;;;;24.73;15.50;;;7.70;99.90;;;;;;5062075;28;20209;-55
2021/11/04 05:13:43;;;;;;;29.73;16.90;;;7.70;99.90;;;;;;5059246;28;20567;-55
2021/11/04 05:16:10;;;;;;;26.13;15.97;;;7.70;99.90;;;;;;5055068;28;20207;-51
2021/11/04 05:18:38;;;;;;;25.90;16.57;;;7.70;99.90;;;;;;5055492;28;20218;-54
2021/11/04 05:21:05;;;;;;;26.73;16.43;;;7.70;99.90;;;;;;5064585;28;20808;-55
2021/11/04 05:23:31;;;;;;;28.07;17.23;;;7.70;99.90;;;;;;5046379;28;20207;-53
2021/11/04 05:25:58;;;;;;;22.97;15.50;;;7.70;99.90;;;;;;5062993;28;20202;-53
2021/11/04 05:28:25;;;;;;;28.23;17.20;;;7.70;99.90;;;;;;5066101;28;20554;-55
2021/11/04 05:30:51;;;;;;;25.47;16.07;;;7.70;99.90;;;;;;5062296;28;20187;-50
2021/11/04 05:33:18;;;;;;;25.10;15.80;;;7.80;99.90;;;;;;5060739;28;20639;-55
2021/11/04 05:35:46;;;;;;;28.47;16.63;;;7.80;99.90;;;;;;5061740;28;20221;-54
2021/11/04 05:38:12;;;;;;;25.07;15.97;;;7.80;99.90;;;;;;5060709;28;20215;-51
2021/11/04 05:40:39;;;;;;;25.17;16.43;;;7.80;99.90;;;;;;5049334;28;20210;-55
2021/11/04 05:43:06;;;;;;;29.07;17.57;;;7.80;99.90;;;;;;5064045;28;20902;-50
2021/11/04 05:45:32;;;;;;;28.70;16.70;;;7.80;99.90;;;;;;5060025;28;20226;-53
2021/11/04 05:47:59;;;;;;;29.67;16.53;;;7.80;99.90;;;;;;5063239;28;20202;-50
2021/11/04 05:50:26;;;;;;;26.43;16.10;;;7.80;99.90;;;;;;5064375;28;20575;-55
2021/11/04 05:52:54;;;;;;;27.97;16.07;;;7.80;99.90;;;;;;5056673;28;20199;-52
2021/11/04 05:55:20;;;;;;;21.97;15.37;;;7.80;99.90;;;;;;5043021;28;20380;-52
2021/11/04 05:57:47;;;;;;;27.93;16.47;;;7.80;99.90;;;;;;5062731;28;20191;-53
2021/11/04 06:00:15;;;;;;;24.97;14.77;;;7.80;99.90;;;;;;5060879;28;20215;-53
2021/11/04 06:02:41;;;;;;;24.17;15.80;;;7.80;99.90;;;;;;5061634;28;20198;-54
2021/11/04 06:05:08;;;;;;;26.47;17.73;;;7.80;99.90;;;;;;5065619;28;20219;-53
2021/11/04 06:07:35;;;;;;;26.27;16.67;;;7.80;99.90;;;;;;5050117;28;20212;-54
2021/11/04 06:10:04;;;;;;;27.73;16.63;;;7.80;99.90;;;;;;5040471;28;20209;-54
2021/11/04 06:12:30;;;;;;;28.10;16.70;;;7.80;99.90;;;;;;5054059;28;20218;-53
2021/11/04 06:14:57;;;;;;;29.70;17.23;;;7.80;99.90;;;;;;5058091;28;20222;-53
2021/11/04 06:17:24;;;;;;;25.17;16.47;;;7.80;99.90;;;;;;5063994;28;20674;-53
2021/11/04 06:19:50;;;;;;;31.30;17.93;;;7.80;99.90;;;;;;5063345;28;20226;-51
2021/11/04 06:22:17;;;;;;;28.37;18.20;;;7.80;99.90;;;;;;5065155;28;20679;-55
2021/11/04 06:24:44;;;;;;;31.27;17.93;;;7.80;99.90;;;;;;5042535;28;20226;-55
2021/11/04 06:27:12;;;;;;;26.13;17.10;;;7.80;99.90;;;;;;5065062;28;20202;-55
2021/11/04 06:29:38;;;;;;;29.87;18.00;;;7.80;99.90;;;;;;5056674;28;20252;-51
2021/11/04 06:32:06;;;;;;;27.53;17.40;;;7.80;99.90;;;;;;5056039;28;20293;-53
2021/11/04 06:34:32;;;;;;;26.50;16.70;;;7.80;99.90;;;;;;5062310;28;21971;-56
2021/11/04 06:36:59;;;;;;;28.43;18.57;;;7.80;99.90;;;;;;5056950;28;20199;-54
2021/11/04 06:39:25;;;;;;;30.70;18.63;;;7.80;99.90;;;;;;5058924;28;20210;-56
2021/11/04 06:41:52;;;;;;;29.17;18.03;;;7.80;99.90;;;;;;5044925;28;21854;-53
2021/11/04 06:44:20;;;;;;;32.57;18.20;;;7.80;99.90;;;;;;5064408;28;20227;-54
2021/11/04 06:46:50;;;;;;;27.43;16.57;;;7.80;99.90;;;;;;5056022;28;20971;-53
2021/11/04 06:49:19;;;;;;;29.97;18.47;;;7.80;99.90;;;;;;5059814;28;20199;-54
2021/11/04 06:51:49;;;;;;;29.17;18.50;;;7.80;99.90;;;;;;5052069;28;20767;-56
2021/11/04 06:54:16;;;;;;;29.20;18.13;;;7.80;99.90;;;;;;5060617;28;20582;-55
2021/11/04 06:56:44;;;;;;;29.53;17.20;;;7.80;99.90;;;;;;5040151;28;20233;-55
2021/11/04 06:59:17;;;;;;;27.37;16.73;;;7.80;99.90;;;;;;5059322;28;20225;-53
2021/11/04 07:01:50;;;;;;;26.73;16.27;;;7.80;99.90;;;;;;5055480;28;20195;-54
2021/11/04 07:04:25;;;;;;;25.77;15.97;;;7.80;99.90;;;;;;5062696;28;20584;-52
2021/11/04 07:07:00;;;;;;;24.90;16.33;;;7.80;99.90;;;;;;5060120;28;20243;-54
2021/11/04 07:09:29;;;;;;;24.83;16.13;;;7.80;99.90;;;;;;5059503;28;20212;-52
2021/11/04 07:11:57;;;;;;;24.70;15.67;;;7.80;99.90;;;;;;5048641;28;20202;-51
2021/11/04 07:14:27;;;;;;;25.87;15.53;;;7.80;99.90;;;;;;5058053;28;20238;-53
2021/11/04 07:16:56;;;;;;;23.03;14.87;;;7.80;99.90;;;;;;5055961;28;20975;-53
2021/11/04 07:19:23;;;;;;;24.33;15.27;;;7.80;99.90;;;;;;5054721;28;22506;-54
2021/11/04 07:21:59;;;;;;;24.27;14.67;;;7.80;99.90;;;;;;5059257;28;20221;-51
2021/11/04 07:24:31;;;;;;;25.20;14.57;;;7.80;99.90;;;;;;5050339;28;20241;-54
2021/11/04 07:27:08;;;;;;;23.20;13.97;;;7.80;99.90;;;;;;5052290;28;20295;-52
2021/11/04 07:29:42;;;;;;;22.17;13.57;;;7.80;99.90;;;;;;5050250;28;21018;-61
2021/11/04 07:32:15;;;;;;;21.70;12.70;;;7.80;99.90;;;;;;5054380;28;20199;-61
2021/11/04 07:34:45;;;;;;;19.97;12.93;;;7.80;99.90;;;;;;5061735;28;20218;-60
2021/11/04 07:37:12;;;;;;;16.97;11.53;;;7.80;99.90;;;;;;5057726;28;20198;-60
2021/11/04 07:39:42;;;;;;;19.07;12.27;;;7.80;99.90;;;;;;5045882;28;20214;-61
2021/11/04 07:42:09;;;;;;;20.20;11.63;;;7.80;99.90;;;;;;5046227;28;20206;-60
2021/11/04 07:44:37;;;;;;;19.37;12.30;;;7.70;99.90;;;;;;5061750;28;20225;-60
2021/11/04 07:47:06;;;;;;;18.97;12.13;;;7.80;99.90;;;;;;5051895;28;20226;-60
2021/11/04 07:49:35;;;;;;;18.23;11.87;;;7.80;99.90;;;;;;5060516;28;21102;-60
2021/11/04 07:52:02;;;;;;;19.70;12.20;;;7.80;99.90;;;;;;5060174;28;20209;-60
2021/11/04 07:54:30;;;;;;;18.57;11.83;;;7.80;99.90;;;;;;5056279;28;22828;-60
2021/11/04 07:56:57;;;;;;;20.67;12.13;;;7.80;99.90;;;;;;5056951;28;20206;-59
2021/11/04 07:59:26;;;;;;;17.67;11.90;;;7.80;99.90;;;;;;5052423;28;20218;-60
2021/11/04 08:01:53;;;;;;;16.33;11.10;;;7.80;99.90;;;;;;5056920;28;20207;-60
2021/11/04 08:04:20;;;;;;;19.97;12.23;;;7.80;99.90;;;;;;5054138;28;20730;-61
2021/11/04 08:06:48;;;;;;;17.43;11.57;;;7.80;99.90;;;;;;5061872;28;20195;-61
2021/11/04 08:09:14;;;;;;;19.80;12.07;;;7.80;99.90;;;;;;5026963;28;20190;-60
2021/11/04 08:11:41;;;;;;;19.23;11.97;;;7.80;99.90;;;;;;5056876;28;20203;-60
2021/11/04 08:14:08;;;;;;;20.47;12.43;;;7.80;99.90;;;;;;5046909;28;20214;-60
2021/11/04 08:16:34;;;;;;;18.23;11.90;;;7.90;99.90;;;;;;5062574;28;20218;-60
2021/11/04 08:19:01;;;;;;;20.30;12.83;;;7.90;99.90;;;;;;5054871;28;20218;-60
2021/11/04 08:21:28;;;;;;;20.03;12.70;;;7.90;99.90;;;;;;5062307;28;20191;-60
2021/11/04 08:23:55;;;;;;;22.60;12.90;;;7.90;99.90;;;;;;5058306;28;20213;-60
2021/11/04 08:26:22;;;;;;;20.03;12.13;;;7.90;99.90;;;;;;5057626;28;20202;-60
2021/11/04 08:28:50;;;;;;;20.83;13.23;;;7.90;99.90;;;;;;5053516;28;20251;-60
2021/11/04 08:31:17;;;;;;;21.23;12.53;;;7.90;99.90;;;;;;5058310;28;20227;-60
2021/11/04 08:33:43;;;;;;;18.63;13.03;;;7.90;99.90;;;;;;5061230;28;20191;-60
2021/11/04 08:36:10;;;;;;;20.60;12.40;;;7.90;99.90;;;;;;5053627;28;20199;-60
2021/11/04 08:38:37;;;;;;;16.93;11.73;;;7.90;99.90;;;;;;5064741;28;20541;-60
2021/11/04 08:41:04;;;;;;;18.80;11.33;;;7.90;99.90;;;;;;5049049;28;20233;-60
2021/11/04 08:43:31;;;;;;;17.83;12.53;;;7.90;99.90;;;;;;5046825;28;20603;-61
2021/11/04 08:45:58;;;;;;;19.63;12.30;;;7.90;99.90;;;;;;5058918;28;20210;-60
2021/11/04 08:48:25;;;;;;;18.30;11.57;;;7.90;99.90;;;;;;5061473;28;20205;-60
2021/11/04 08:50:52;;;;;;;18.57;11.47;;;7.90;99.90;;;;;;5057334;28;20609;-60
2021/11/04 08:53:18;;;;;;;16.50;11.40;;;8.00;99.90;;;;;;5063238;28;20937;-60
2021/11/04 08:55:46;;;;;;;16.50;9.93;;;8.00;99.90;;;;;;5065594;28;20276;-61
2021/11/04 08:58:14;;;;;;;13.10;9.10;;;8.00;99.90;;;;;;5058768;28;20217;-60
2021/11/04 09:00:41;;;;;;;15.60;9.13;;;8.00;99.90;;;;;;5052541;28;20531;-61
2021/11/04 09:03:08;;;;;;;12.53;9.10;;;8.00;99.90;;;;;;5062926;28;20829;-60
2021/11/04 09:05:35;;;;;;;14.10;8.73;;;8.00;99.90;;;;;;5062535;28;20297;-60
2021/11/04 09:08:04;;;;;;;12.37;8.57;;;8.00;99.90;;;;;;5062402;28;20229;-60
2021/11/04 09:10:31;;;;;;;11.27;7.90;;;8.00;99.90;;;;;;5061609;28;20202;-60
2021/11/04 09:12:58;;;;;;;11.10;8.17;;;8.00;99.90;;;;;;5058390;28;20214;-60
2021/11/04 09:15:26;;;;;;;12.87;8.00;;;8.10;99.90;;;;;;5051987;28;20222;-60
2021/11/04 09:17:52;;;;;;;11.83;7.97;;;8.10;99.90;;;;;;5067813;28;20853;-59
2021/11/04 09:20:19;;;;;;;10.20;7.60;;;8.00;99.90;;;;;;5063671;28;20226;-60
2021/11/04 09:22:48;;;;;;;11.63;8.33;;;8.10;99.90;;;;;;5061865;28;20209;-61
2021/11/04 09:25:17;;;;;;;10.93;8.40;;;8.10;99.90;;;;;;5056470;28;20237;-60
2021/11/04 09:27:44;;;;;;;11.77;8.70;;;8.10;99.90;;;;;;5061518;28;20572;-60
2021/11/04 09:30:11;;;;;;;10.20;8.17;;;8.10;99.90;;;;;;5065738;28;20179;-60
2021/11/04 09:32:40;;;;;;;11.77;8.03;;;8.20;99.90;;;;;;5052160;28;20218;-60
2021/11/04 09:35:09;;;;;;;13.47;8.40;;;8.20;99.90;;;;;;5061165;28;20222;-60
2021/11/04 09:37:36;;;;;;;12.93;8.17;;;8.20;99.90;;;;;;5060612;28;20284;-60
2021/11/04 09:40:04;;;;;;;13.77;8.13;;;8.20;99.90;;;;;;5062711;28;20671;-60
2021/11/04 09:42:31;;;;;;;13.53;7.60;;;8.20;99.90;;;;;;5056180;28;20203;-60
2021/11/04 09:44:57;;;;;;;13.80;8.53;;;8.20;99.90;;;;;;5047385;28;20257;-61
2021/11/04 09:47:26;;;;;;;13.43;8.67;;;8.20;99.90;;;;;;5045483;28;20226;-61
2021/11/04 09:49:55;;;;;;;11.10;7.90;;;8.30;99.90;;;;;;5052707;28;20191;-47
2021/11/04 09:52:24;;;;;;;12.27;8.50;;;8.30;99.90;;;;;;5057814;28;20282;-48
2021/11/04 09:54:52;;;;;;;12.83;8.20;;;8.30;99.90;;;;;;5059172;28;20221;-48
2021/11/04 09:57:19;;;;;;;13.13;8.57;;;8.30;99.90;;;;;;5046550;28;20904;-49
2021/11/04 09:59:45;;;;;;;13.60;8.80;;;8.30;99.90;;;;;;5052071;28;20213;-51
2021/11/04 10:02:17;;;;;;;12.47;8.50;;;8.30;99.90;;;;;;5041882;28;20222;-50
2021/11/04 10:04:45;;;;;;;12.40;9.30;;;8.40;99.90;;;;;;5053751;28;20233;-53
2021/11/04 10:07:13;;;;;;;16.73;11.03;;;8.40;99.90;;;;;;5056874;28;20199;-53
2021/11/04 10:09:40;;;;;;;15.20;9.27;;;8.40;99.90;;;;;;5067167;28;20203;-52
2021/11/04 10:12:11;;;;;;;15.10;9.97;;;8.40;99.90;;;;;;5056029;28;20199;-53
2021/11/04 10:14:38;;;;;;;14.20;9.83;;;8.50;99.90;;;;;;5060918;28;20314;-49
2021/11/04 10:17:05;;;;;;;14.93;9.30;;;8.50;99.90;;;;;;5048110;28;20210;-51
2021/11/04 10:19:41;;;;;;;16.03;10.63;;;8.50;99.90;;;;;;5053186;28;20202;-52
2021/11/04 10:22:08;;;;;;;15.07;9.83;;;8.50;99.90;;;;;;5056858;28;20214;-50
2021/11/04 10:24:48;;;;;;;15.60;10.23;;;8.50;99.90;;;;;;5063584;28;20226;-50
2021/11/04 10:27:28;;;;;;;13.80;10.37;;;8.50;99.90;;;;;;5062668;28;20945;-50
2021/11/04 10:29:55;;;;;;;14.53;9.80;;;8.50;99.90;;;;;;5060489;28;20202;-51
2021/11/04 10:32:33;;;;;;;15.67;10.50;;;8.60;99.90;;;;;;5052015;28;20214;-49
2021/11/04 10:35:07;;;;;;;18.77;9.97;;;8.60;99.90;;;;;;5054783;28;20242;-50
2021/11/04 10:37:43;;;;;;;16.90;10.43;;;8.50;99.90;;;;;;5058284;28;20211;-47
2021/11/04 10:40:17;;;;;;;17.20;10.47;;;8.60;99.90;;;;;;5063804;28;20271;-53
2021/11/04 10:42:52;;;;;;;15.40;10.77;;;8.60;99.90;;;;;;5064513;28;20205;-46
2021/11/04 10:45:20;;;;;;;18.33;11.83;;;8.60;99.90;;;;;;5056691;28;20221;-51
2021/11/04 10:47:46;;;;;;;16.20;10.73;;;8.60;99.90;;;;;;5059916;28;20270;-49
2021/11/04 10:50:15;;;;;;;16.67;10.60;;;8.60;99.90;;;;;;5052059;28;20206;-53
2021/11/04 10:52:42;;;;;;;18.67;10.87;;;8.60;99.90;;;;;;5063415;28;20199;-48
2021/11/04 10:55:12;;;;;;;15.50;10.40;;;8.60;99.90;;;;;;5068705;28;20213;-46
2021/11/04 10:57:40;;;;;;;17.00;11.47;;;8.60;99.90;;;;;;5065895;28;20667;-50
2021/11/04 11:00:14;;;;;;;16.17;11.03;;;8.70;99.90;;;;;;5056862;28;20651;-47
2021/11/04 11:02:51;;;;;;;16.53;11.30;;;8.70;99.90;;;;;;5056993;28;20205;-47
2021/11/04 11:05:27;;;;;;;17.47;10.50;;;8.70;99.90;;;;;;5046631;28;20241;-48
2021/11/04 11:07:55;;;;;;;16.10;11.23;;;8.70;99.90;;;;;;5055244;28;20551;-50
2021/11/04 11:10:23;;;;;;;15.77;10.40;;;8.60;99.90;;;;;;5059286;28;20214;-52
2021/11/04 11:12:50;;;;;;;14.00;10.87;;;8.60;99.90;;;;;;5063709;28;20191;-47
2021/11/04 11:15:17;;;;;;;17.30;10.87;;;8.60;99.90;;;;;;5058580;28;20742;-48
2021/11/04 11:17:45;;;;;;;13.90;9.67;;;8.60;99.90;;;;;;5065388;28;20215;-50
2021/11/04 11:20:14;;;;;;;15.70;9.43;;;8.70;99.90;;;;;;5055089;28;20207;-52
2021/11/04 11:22:43;;;;;;;15.27;9.97;;;8.70;99.90;;;;;;5051563;28;20203;-48
2021/11/04 11:25:10;;;;;;;13.97;9.37;;;8.70;99.90;;;;;;5054932;28;20309;-50
2021/11/04 11:27:38;;;;;;;13.13;10.20;;;8.70;99.90;;;;;;5069479;28;20201;-46
2021/11/04 11:30:10;;;;;;;13.00;10.13;;;8.70;99.90;;;;;;5053480;28;22936;-51
2021/11/04 11:32:37;;;;;;;13.50;10.03;;;8.70;99.90;;;;;;5069843;28;20205;-48
2021/11/04 11:35:17;;;;;;;12.37;9.93;;;8.70;99.90;;;;;;5047710;28;20221;-47
2021/11/04 11:38:03;;;;;;;12.37;9.47;;;8.70;99.90;;;;;;5055567;28;20288;-52
2021/11/04 11:40:31;;;;;;;12.77;9.50;;;8.70;99.90;;;;;;5059479;28;20233;-53
2021/11/04 11:43:01;;;;;;;13.23;10.27;;;8.70;99.90;;;;;;5054534;28;20199;-49
2021/11/04 11:45:29;;;;;;;12.90;8.97;;;8.70;99.90;;;;;;5062855;28;20218;-50
2021/11/04 11:47:56;;;;;;;13.87;9.60;;;8.70;99.90;;;;;;5050972;28;20213;-53
2021/11/04 11:50:31;;;;;;;11.07;9.00;;;8.70;99.90;;;;;;5051955;28;20202;-53
2021/11/04 11:53:00;;;;;;;11.17;9.00;;;8.70;99.90;;;;;;5046601;28;21056;-52
2021/11/04 11:55:38;;;;;;;11.53;8.73;;;8.70;99.90;;;;;;5062185;28;20252;-50
2021/11/04 11:58:34;;;;;;;9.73;8.10;;;8.70;99.90;;;;;;5052573;28;20203;-53
2021/11/04 12:01:10;;;;;;;11.63;8.80;;;8.70;99.90;;;;;;5041216;28;20237;-49
2021/11/04 12:03:48;;;;;;;12.07;7.93;;;8.60;99.90;;;;;;5056259;28;20604;-48
2021/11/04 12:06:44;;;;;;;12.50;8.40;;;8.60;99.90;;;;;;5043497;28;20301;-48
2021/11/04 12:09:12;;;;;;;16.23;9.03;;;8.70;99.90;;;;;;5054522;28;20210;-48
2021/11/04 12:11:43;;;;;;;10.97;8.43;;;8.70;99.90;;;;;;5060053;28;20255;-53
2021/11/04 12:14:30;;;;;;;12.17;8.07;;;8.70;99.90;;;;;;5058072;28;20264;-53
2021/11/04 12:17:14;;;;;;;10.50;8.03;;;8.70;99.90;;;;;;5061069;28;20198;-51
2021/11/04 12:19:44;;;;;;;12.73;8.30;;;8.70;99.90;;;;;;5059635;28;20250;-50
2021/11/04 12:22:12;;;;;;;14.27;8.90;;;8.70;99.90;;;;;;5054056;28;20295;-49
2021/11/04 12:24:50;;;;;;;13.37;9.33;;;8.70;99.90;;;;;;5057568;28;20230;-49
2021/11/04 12:27:17;;;;;;;15.70;8.97;;;8.70;99.90;;;;;;5057341;28;20928;-53
2021/11/04 12:29:46;;;;;;;14.53;9.43;;;8.70;99.90;;;;;;5064077;28;20193;-51
2021/11/04 12:32:14;;;;;;;12.00;8.80;;;8.70;99.90;;;;;;5064121;28;20190;-52
2021/11/04 12:34:41;;;;;;;13.53;8.73;;;8.70;99.90;;;;;;5054283;28;20577;-48
2021/11/04 12:37:10;;;;;;;11.73;8.93;;;8.70;99.90;;;;;;5042540;28;20205;-50
2021/11/04 12:39:37;;;;;;;13.17;8.57;;;8.70;99.90;;;;;;5050076;28;20210;-49
2021/11/04 12:42:04;;;;;;;14.40;9.60;;;8.70;99.90;;;;;;5053081;28;20246;-50
2021/11/04 12:44:33;;;;;;;13.03;9.20;;;8.70;99.90;;;;;;5058848;28;20219;-54